No.3tokuyomaru — JD3132 — position and weather

sailwx.info

Track history (hours):
 
Tides and Currents Weather Stations Pressure Air Temp Water Temp Dewpoint Dewpoint Depression Visibility Wind Speed Wind Dir Waves Ship Positions

No.3tokuyomaru

Last reported at 2017-Feb-26 05:33 UTC. Time now 2017-Feb-26 06:15 UTC.
Position N 35°29' E 139°49'.

Length 67 m; draft 4.3 m.

Type: Tanker. MMSI: 431002151.

Date/timePositionNaut miles runAvg speedWind from/ knotsBaromVisibWave heightAir tempDewpointWater temp
2017-Feb-26 05:33N 35°29' E 139°49'0 0.0
2017-Feb-26 04:33N 35°29' E 139°49'0 0.3
2017-Feb-26 03:33N 35°30' E 139°49'2 2.1
2017-Feb-26 02:30N 35°31' E 139°46'0 0.0
2017-Feb-26 01:27N 35°31' E 139°46'0 0.0
2017-Feb-26 00:30N 35°31' E 139°46'0 0.0
2017-Feb-25 23:18N 35°31' E 139°46'0 0.0
2017-Feb-25 22:33N 35°31' E 139°46'2 1.7
2017-Feb-25 21:33N 35°30' E 139°48'8 8.0
2017-Feb-25 20:33N 35°22' E 139°45'1111.3
2017-Feb-25 19:33N 35°11' E 139°47'1312.8
2017-Feb-25 18:33N 34°58' E 139°43'1 0.0
2017-Feb-24 14:32N 34°59' E 139°43'1212.4
2017-Feb-24 13:33N 35°11' E 139°46'1312.5
2017-Feb-24 12:34N 35°23' E 139°42'9 8.5
2017-Feb-24 11:33N 35°31' E 139°46'0 0.0
2017-Feb-24 10:29N 35°31' E 139°46'0 0.0
2017-Feb-24 09:26N 35°31' E 139°46'0 0.0
2017-Feb-24 08:26N 35°31' E 139°46'0 0.0
2017-Feb-24 07:32N 35°31' E 139°46'0 0.0
2017-Feb-24 06:26N 35°31' E 139°46'0 0.0
2017-Feb-24 05:26N 35°31' E 139°46'2 2.2
2017-Feb-24 04:31N 35°29' E 139°46'0 0.0
2017-Feb-24 03:31N 35°29' E 139°46'0 0.0
2017-Feb-24 02:28N 35°29' E 139°46'0 0.0
2017-Feb-24 01:31N 35°29' E 139°46'0 0.0
2017-Feb-24 00:31N 35°29' E 139°46'0 0.0
2017-Feb-23 23:31N 35°29' E 139°46'0 0.0
2017-Feb-23 22:31N 35°29' E 139°46'0 0.0
2017-Feb-23 21:31N 35°29' E 139°46'0 0.0
2017-Feb-23 20:34N 35°29' E 139°46'0 0.0
2017-Feb-23 19:34N 35°29' E 139°46'0 0.0
2017-Feb-23 18:34N 35°29' E 139°46'0 0.0
2017-Feb-23 17:31N 35°29' E 139°46'0 0.0
2017-Feb-23 16:31N 35°29' E 139°46'0 0.0
2017-Feb-23 15:31N 35°29' E 139°46'0 0.0
2017-Feb-23 14:31N 35°29' E 139°46'0 0.0
2017-Feb-23 13:30N 35°29' E 139°46'0 0.0
2017-Feb-23 12:30N 35°29' E 139°46'0 0.0
2017-Feb-23 11:28N 35°29' E 139°46'0 0.1
2017-Feb-23 10:30N 35°29' E 139°46'0 0.1
2017-Feb-23 09:30N 35°29' E 139°46'0 0.0
2017-Feb-23 08:33N 35°29' E 139°46'0 0.0
2017-Feb-23 07:33N 35°29' E 139°46'0 0.0
2017-Feb-23 06:34N 35°29' E 139°46'0 0.1
2017-Feb-23 05:33N 35°29' E 139°46'0 0.1
2017-Feb-23 04:33N 35°29' E 139°46'0 0.1
2017-Feb-23 03:33N 35°29' E 139°46'0 0.0
2017-Feb-23 02:33N 35°29' E 139°46'0 0.0
2017-Feb-23 01:33N 35°29' E 139°46'0 0.0
2017-Feb-23 00:33N 35°29' E 139°46'0 0.0
2017-Feb-22 23:33N 35°29' E 139°46'0 0.0
2017-Feb-22 22:34N 35°29' E 139°46'0 0.0
2017-Feb-22 21:33N 35°29' E 139°46'0 0.0
2017-Feb-22 20:33N 35°29' E 139°46'0 0.0
2017-Feb-22 19:34N 35°29' E 139°46'0 0.0
2017-Feb-22 18:33N 35°29' E 139°46'0 0.0
2017-Feb-22 17:33N 35°29' E 139°46'0 0.0
2017-Feb-22 16:33N 35°29' E 139°46'0 0.1
2017-Feb-22 15:33N 35°29' E 139°46'1211.8
2017-Feb-22 14:33N 35°17' E 139°46'1312.6
2017-Feb-22 13:33N 35°04' E 139°45'  
Track history (hours):
 
Tides and Currents Weather Stations Pressure Air Temp Water Temp Dewpoint Dewpoint Depression Visibility Wind Speed Wind Dir Waves Ship Positions

No.3tokuyomaru

Last reported at 2017-Feb-26 05:33 UTC. Time now 2017-Feb-26 06:15 UTC.
Position N 35°29' E 139°49'.

Length 67 m; draft 4.3 m.

Type: Tanker. MMSI: 431002151.

Date/timePositionNaut miles runAvg speedWind from/ knotsBaromVisibWave heightAir tempDewpointWater temp
2017-Feb-26 05:33N 35°29' E 139°49'0 0.0
2017-Feb-26 04:33N 35°29' E 139°49'0 0.3
2017-Feb-26 03:33N 35°30' E 139°49'2 2.1
2017-Feb-26 02:30N 35°31' E 139°46'0 0.0
2017-Feb-26 01:27N 35°31' E 139°46'0 0.0
2017-Feb-26 00:30N 35°31' E 139°46'0 0.0
2017-Feb-25 23:18N 35°31' E 139°46'0 0.0
2017-Feb-25 22:33N 35°31' E 139°46'2 1.7
2017-Feb-25 21:33N 35°30' E 139°48'8 8.0
2017-Feb-25 20:33N 35°22' E 139°45'1111.3
2017-Feb-25 19:33N 35°11' E 139°47'1312.8
2017-Feb-25 18:33N 34°58' E 139°43'1 0.0
2017-Feb-24 14:32N 34°59' E 139°43'1212.4
2017-Feb-24 13:33N 35°11' E 139°46'1312.5
2017-Feb-24 12:34N 35°23' E 139°42'9 8.5
2017-Feb-24 11:33N 35°31' E 139°46'0 0.0
2017-Feb-24 10:29N 35°31' E 139°46'0 0.0
2017-Feb-24 09:26N 35°31' E 139°46'0 0.0
2017-Feb-24 08:26N 35°31' E 139°46'0 0.0
2017-Feb-24 07:32N 35°31' E 139°46'0 0.0
2017-Feb-24 06:26N 35°31' E 139°46'0 0.0
2017-Feb-24 05:26N 35°31' E 139°46'2 2.2
2017-Feb-24 04:31N 35°29' E 139°46'0 0.0
2017-Feb-24 03:31N 35°29' E 139°46'0 0.0
2017-Feb-24 02:28N 35°29' E 139°46'0 0.0
2017-Feb-24 01:31N 35°29' E 139°46'0 0.0
2017-Feb-24 00:31N 35°29' E 139°46'0 0.0
2017-Feb-23 23:31N 35°29' E 139°46'0 0.0
2017-Feb-23 22:31N 35°29' E 139°46'0 0.0
2017-Feb-23 21:31N 35°29' E 139°46'0 0.0
2017-Feb-23 20:34N 35°29' E 139°46'0 0.0
2017-Feb-23 19:34N 35°29' E 139°46'0 0.0
2017-Feb-23 18:34N 35°29' E 139°46'0 0.0
2017-Feb-23 17:31N 35°29' E 139°46'0 0.0
2017-Feb-23 16:31N 35°29' E 139°46'0 0.0
2017-Feb-23 15:31N 35°29' E 139°46'0 0.0
2017-Feb-23 14:31N 35°29' E 139°46'0 0.0
2017-Feb-23 13:30N 35°29' E 139°46'0 0.0
2017-Feb-23 12:30N 35°29' E 139°46'0 0.0
2017-Feb-23 11:28N 35°29' E 139°46'0 0.1
2017-Feb-23 10:30N 35°29' E 139°46'0 0.1
2017-Feb-23 09:30N 35°29' E 139°46'0 0.0
2017-Feb-23 08:33N 35°29' E 139°46'0 0.0
2017-Feb-23 07:33N 35°29' E 139°46'0 0.0
2017-Feb-23 06:34N 35°29' E 139°46'0 0.1
2017-Feb-23 05:33N 35°29' E 139°46'0 0.1
2017-Feb-23 04:33N 35°29' E 139°46'0 0.1
2017-Feb-23 03:33N 35°29' E 139°46'0 0.0
2017-Feb-23 02:33N 35°29' E 139°46'0 0.0
2017-Feb-23 01:33N 35°29' E 139°46'0 0.0
2017-Feb-23 00:33N 35°29' E 139°46'0 0.0
2017-Feb-22 23:33N 35°29' E 139°46'0 0.0
2017-Feb-22 22:34N 35°29' E 139°46'0 0.0
2017-Feb-22 21:33N 35°29' E 139°46'0 0.0
2017-Feb-22 20:33N 35°29' E 139°46'0 0.0
2017-Feb-22 19:34N 35°29' E 139°46'0 0.0
2017-Feb-22 18:33N 35°29' E 139°46'0 0.0
2017-Feb-22 17:33N 35°29' E 139°46'0 0.0
2017-Feb-22 16:33N 35°29' E 139°46'0 0.1
2017-Feb-22 15:33N 35°29' E 139°46'1211.8
2017-Feb-22 14:33N 35°17' E 139°46'1312.6
2017-Feb-22 13:33N 35°04' E 139°45'  

Dump ship's entire track history